sensor_id;sensor_type;location;lat;lon;timestamp;pressure;altitude;pressure_sealevel;temperature;humidity
71889;BME280;59762;49.998;14.858;2022-09-17T00:00:17;96493.31;;;7.56;100.00
71889;BME280;59762;49.998;14.858;2022-09-17T00:03:02;96498.28;;;7.53;100.00
71889;BME280;59762;49.998;14.858;2022-09-17T00:05:28;96487.28;;;7.49;100.00
71889;BME280;59762;49.998;14.858;2022-09-17T00:07:54;96495.25;;;7.49;100.00
71889;BME280;59762;49.998;14.858;2022-09-17T00:10:19;96491.19;;;7.47;100.00
71889;BME280;59762;49.998;14.858;2022-09-17T00:12:46;96488.69;;;7.52;100.00
71889;BME280;59762;49.998;14.858;2022-09-17T00:15:12;96485.84;;;7.53;100.00
71889;BME280;59762;49.998;14.858;2022-09-17T00:17:38;96495.03;;;7.51;100.00
71889;BME280;59762;49.998;14.858;2022-09-17T00:20:04;96476.47;;;7.51;100.00
71889;BME280;59762;49.998;14.858;2022-09-17T00:22:33;96480.16;;;7.50;100.00
71889;BME280;59762;49.998;14.858;2022-09-17T00:24:59;96482.19;;;7.48;100.00
71889;BME280;59762;49.998;14.858;2022-09-17T00:27:24;96468.28;;;7.52;100.00
71889;BME280;59762;49.998;14.858;2022-09-17T00:29:50;96467.47;;;7.52;100.00
71889;BME280;59762;49.998;14.858;2022-09-17T00:32:15;96463.44;;;7.49;100.00
71889;BME280;59762;49.998;14.858;2022-09-17T00:34:42;96464.69;;;7.47;100.00
71889;BME280;59762;49.998;14.858;2022-09-17T00:37:08;96474.91;;;7.43;100.00
71889;BME280;59762;49.998;14.858;2022-09-17T00:39:33;96472.91;;;7.39;100.00
71889;BME280;59762;49.998;14.858;2022-09-17T00:41:59;96474.16;;;7.36;100.00
71889;BME280;59762;49.998;14.858;2022-09-17T00:44:46;96474.59;;;7.33;100.00
71889;BME280;59762;49.998;14.858;2022-09-17T00:49:48;96485.63;;;7.30;100.00
71889;BME280;59762;49.998;14.858;2022-09-17T00:52:21;96484.44;;;7.26;100.00
71889;BME280;59762;49.998;14.858;2022-09-17T00:54:53;96492.81;;;7.23;100.00
71889;BME280;59762;49.998;14.858;2022-09-17T00:57:21;96487.38;;;7.18;100.00
71889;BME280;59762;49.998;14.858;2022-09-17T00:59:47;96492.81;;;7.23;100.00
71889;BME280;59762;49.998;14.858;2022-09-17T01:02:13;96497.97;;;7.18;100.00
71889;BME280;59762;49.998;14.858;2022-09-17T01:04:39;96497.56;;;7.14;100.00
71889;BME280;59762;49.998;14.858;2022-09-17T01:07:16;96492.66;;;7.18;100.00
71889;BME280;59762;49.998;14.858;2022-09-17T01:09:54;96493.25;;;7.20;100.00
71889;BME280;59762;49.998;14.858;2022-09-17T01:12:35;96493.47;;;7.18;100.00
71889;BME280;59762;49.998;14.858;2022-09-17T01:32:22;96492.38;;;7.01;100.00
71889;BME280;59762;49.998;14.858;2022-09-17T01:35:00;96490.53;;;7.01;100.00
71889;BME280;59762;49.998;14.858;2022-09-17T01:37:33;96493.41;;;7.00;100.00
71889;BME280;59762;49.998;14.858;2022-09-17T01:40:07;96491.56;;;7.00;100.00
71889;BME280;59762;49.998;14.858;2022-09-17T01:42:51;96494.41;;;6.99;100.00
71889;BME280;59762;49.998;14.858;2022-09-17T01:48:01;96492.41;;;6.94;100.00
71889;BME280;59762;49.998;14.858;2022-09-17T01:50:35;96500.16;;;6.96;100.00
71889;BME280;59762;49.998;14.858;2022-09-17T01:53:03;96491.84;;;6.92;100.00
71889;BME280;59762;49.998;14.858;2022-09-17T01:55:34;96501.38;;;6.93;100.00
71889;BME280;59762;49.998;14.858;2022-09-17T02:00:31;96502.41;;;6.92;100.00
71889;BME280;59762;49.998;14.858;2022-09-17T02:03:01;96503.81;;;6.95;100.00
71889;BME280;59762;49.998;14.858;2022-09-17T02:05:42;96502.66;;;6.91;100.00
71889;BME280;59762;49.998;14.858;2022-09-17T02:10:45;96498.34;;;6.90;100.00
71889;BME280;59762;49.998;14.858;2022-09-17T02:13:23;96512.63;;;6.89;100.00
71889;BME280;59762;49.998;14.858;2022-09-17T02:15:59;96502.03;;;6.89;100.00
71889;BME280;59762;49.998;14.858;2022-09-17T02:18:36;96501.66;;;6.85;100.00
71889;BME280;59762;49.998;14.858;2022-09-17T02:21:15;96490.78;;;6.93;100.00
71889;BME280;59762;49.998;14.858;2022-09-17T02:24:16;96485.97;;;6.83;100.00
71889;BME280;59762;49.998;14.858;2022-09-17T02:26:49;96489.41;;;6.91;100.00
71889;BME280;59762;49.998;14.858;2022-09-17T02:29:31;96487.56;;;6.91;100.00
71889;BME280;59762;49.998;14.858;2022-09-17T02:31:57;96484.94;;;6.85;100.00
71889;BME280;59762;49.998;14.858;2022-09-17T02:34:24;96483.56;;;6.82;100.00
71889;BME280;59762;49.998;14.858;2022-09-17T02:36:52;96482.94;;;6.80;100.00
71889;BME280;59762;49.998;14.858;2022-09-17T02:39:18;96477.50;;;6.75;100.00
71889;BME280;59762;49.998;14.858;2022-09-17T02:44:38;96490.38;;;6.65;100.00
71889;BME280;59762;49.998;14.858;2022-09-17T02:50:36;96504.66;;;6.57;100.00
71889;BME280;59762;49.998;14.858;2022-09-17T02:53:18;96504.91;;;6.55;100.00
71889;BME280;59762;49.998;14.858;2022-09-17T03:01:30;96491.69;;;6.49;100.00
71889;BME280;59762;49.998;14.858;2022-09-17T03:03:58;96492.31;;;6.51;100.00
71889;BME280;59762;49.998;14.858;2022-09-17T03:06:26;96488.22;;;6.48;100.00
71889;BME280;59762;49.998;14.858;2022-09-17T03:08:52;96483.16;;;6.47;100.00
71889;BME280;59762;49.998;14.858;2022-09-17T03:11:18;96488.44;;;6.47;100.00
71889;BME280;59762;49.998;14.858;2022-09-17T03:13:43;96476.66;;;6.43;100.00
71889;BME280;59762;49.998;14.858;2022-09-17T03:16:09;96472.38;;;6.42;100.00
71889;BME280;59762;49.998;14.858;2022-09-17T03:18:35;96466.25;;;6.48;100.00
71889;BME280;59762;49.998;14.858;2022-09-17T03:21:00;96462.00;;;6.47;100.00
71889;BME280;59762;49.998;14.858;2022-09-17T03:23:26;96462.16;;;6.52;100.00
71889;BME280;59762;49.998;14.858;2022-09-17T03:25:52;96456.06;;;6.51;100.00
71889;BME280;59762;49.998;14.858;2022-09-17T03:28:18;96451.34;;;6.53;100.00
71889;BME280;59762;49.998;14.858;2022-09-17T03:30:44;96457.47;;;6.54;100.00
71889;BME280;59762;49.998;14.858;2022-09-17T03:33:10;96454.00;;;6.53;100.00
71889;BME280;59762;49.998;14.858;2022-09-17T03:35:36;96456.91;;;6.45;100.00
71889;BME280;59762;49.998;14.858;2022-09-17T03:38:02;96450.81;;;6.45;100.00
71889;BME280;59762;49.998;14.858;2022-09-17T03:40:28;96451.59;;;6.45;100.00
71889;BME280;59762;49.998;14.858;2022-09-17T03:42:53;96448.78;;;6.40;100.00
71889;BME280;59762;49.998;14.858;2022-09-17T03:45:19;96461.44;;;6.38;100.00
71889;BME280;59762;49.998;14.858;2022-09-17T03:47:45;96460.19;;;6.41;100.00
71889;BME280;59762;49.998;14.858;2022-09-17T03:50:10;96463.06;;;6.39;100.00
71889;BME280;59762;49.998;14.858;2022-09-17T03:52:36;96452.22;;;6.47;100.00
71889;BME280;59762;49.998;14.858;2022-09-17T03:55:02;96457.50;;;6.47;100.00
71889;BME280;59762;49.998;14.858;2022-09-17T03:57:28;96443.25;;;6.48;100.00
71889;BME280;59762;49.998;14.858;2022-09-17T03:59:53;96436.34;;;6.47;100.00
71889;BME280;59762;49.998;14.858;2022-09-17T04:02:19;96439.97;;;6.53;100.00
71889;BME280;59762;49.998;14.858;2022-09-17T04:04:45;96432.84;;;6.53;100.00
71889;BME280;59762;49.998;14.858;2022-09-17T04:07:10;96432.19;;;6.58;100.00
71889;BME280;59762;49.998;14.858;2022-09-17T04:09:36;96429.22;;;6.48;100.00
71889;BME280;59762;49.998;14.858;2022-09-17T04:12:02;96435.66;;;6.58;100.00
71889;BME280;59762;49.998;14.858;2022-09-17T04:14:28;96420.94;;;6.69;100.00
71889;BME280;59762;49.998;14.858;2022-09-17T04:16:53;96423.94;;;6.73;100.00
71889;BME280;59762;49.998;14.858;2022-09-17T04:19:19;96426.78;;;6.78;100.00
71889;BME280;59762;49.998;14.858;2022-09-17T04:21:44;96416.13;;;6.85;100.00
71889;BME280;59762;49.998;14.858;2022-09-17T04:24:10;96411.81;;;6.90;100.00
71889;BME280;59762;49.998;14.858;2022-09-17T04:26:36;96416.81;;;6.98;100.00
71889;BME280;59762;49.998;14.858;2022-09-17T04:29:02;96411.50;;;7.05;100.00
71889;BME280;59762;49.998;14.858;2022-09-17T04:31:27;96420.41;;;7.11;100.00
71889;BME280;59762;49.998;14.858;2022-09-17T04:33:53;96411.78;;;7.15;100.00
71889;BME280;59762;49.998;14.858;2022-09-17T04:36:18;96401.34;;;7.20;100.00
71889;BME280;59762;49.998;14.858;2022-09-17T04:38:47;96398.50;;;7.22;100.00
71889;BME280;59762;49.998;14.858;2022-09-17T04:41:13;96402.16;;;7.21;100.00
71889;BME280;59762;49.998;14.858;2022-09-17T04:43:38;96403.56;;;7.23;100.00
71889;BME280;59762;49.998;14.858;2022-09-17T04:46:04;96401.72;;;7.24;100.00
71889;BME280;59762;49.998;14.858;2022-09-17T04:48:29;96409.63;;;7.30;100.00
71889;BME280;59762;49.998;14.858;2022-09-17T04:50:55;96415.13;;;7.29;100.00
71889;BME280;59762;49.998;14.858;2022-09-17T04:53:21;96416.09;;;7.34;100.00
71889;BME280;59762;49.998;14.858;2022-09-17T04:55:46;96408.97;;;7.35;100.00
71889;BME280;59762;49.998;14.858;2022-09-17T04:58:12;96424.50;;;7.31;100.00
71889;BME280;59762;49.998;14.858;2022-09-17T05:00:37;96414.28;;;7.35;100.00
71889;BME280;59762;49.998;14.858;2022-09-17T05:03:03;96417.94;;;7.34;100.00
71889;BME280;59762;49.998;14.858;2022-09-17T05:05:28;96415.28;;;7.34;100.00
71889;BME280;59762;49.998;14.858;2022-09-17T05:07:54;96416.25;;;7.40;100.00
71889;BME280;59762;49.998;14.858;2022-09-17T05:10:21;96421.75;;;7.38;100.00
71889;BME280;59762;49.998;14.858;2022-09-17T05:12:51;96433.53;;;7.42;100.00
71889;BME280;59762;49.998;14.858;2022-09-17T05:15:17;96429.66;;;7.45;100.00
71889;BME280;59762;49.998;14.858;2022-09-17T05:17:43;96421.09;;;7.43;100.00
71889;BME280;59762;49.998;14.858;2022-09-17T05:20:09;96426.78;;;7.46;100.00
71889;BME280;59762;49.998;14.858;2022-09-17T05:22:43;96430.47;;;7.45;100.00
71889;BME280;59762;49.998;14.858;2022-09-17T05:25:11;96428.63;;;7.46;100.00
71889;BME280;59762;49.998;14.858;2022-09-17T05:27:37;96435.91;;;7.50;100.00
71889;BME280;59762;49.998;14.858;2022-09-17T05:30:03;96435.47;;;7.53;100.00
71889;BME280;59762;49.998;14.858;2022-09-17T05:32:29;96441.97;;;7.57;100.00
71889;BME280;59762;49.998;14.858;2022-09-17T05:34:55;96443.34;;;7.60;100.00
71889;BME280;59762;49.998;14.858;2022-09-17T05:37:21;96439.09;;;7.59;100.00
71889;BME280;59762;49.998;14.858;2022-09-17T05:39:46;96444.91;;;7.68;100.00
71889;BME280;59762;49.998;14.858;2022-09-17T05:42:12;96435.78;;;7.64;100.00
71889;BME280;59762;49.998;14.858;2022-09-17T05:44:37;96447.56;;;7.68;100.00
71889;BME280;59762;49.998;14.858;2022-09-17T05:47:03;96440.34;;;7.75;100.00
71889;BME280;59762;49.998;14.858;2022-09-17T05:49:29;96454.03;;;7.72;100.00
71889;BME280;59762;49.998;14.858;2022-09-17T05:51:54;96449.94;;;7.76;100.00
71889;BME280;59762;49.998;14.858;2022-09-17T05:54:20;96456.19;;;7.81;100.00
71889;BME280;59762;49.998;14.858;2022-09-17T05:56:46;96456.59;;;7.78;100.00
71889;BME280;59762;49.998;14.858;2022-09-17T05:59:11;96458.03;;;7.81;100.00
71889;BME280;59762;49.998;14.858;2022-09-17T06:01:37;96463.91;;;7.83;100.00
71889;BME280;59762;49.998;14.858;2022-09-17T06:04:03;96458.69;;;7.76;100.00
71889;BME280;59762;49.998;14.858;2022-09-17T06:06:29;96478.03;;;7.77;100.00
71889;BME280;59762;49.998;14.858;2022-09-17T06:08:58;96494.63;;;7.72;100.00
71889;BME280;59762;49.998;14.858;2022-09-17T06:11:24;96509.84;;;7.77;100.00
71889;BME280;59762;49.998;14.858;2022-09-17T06:13:53;96514.59;;;7.75;100.00
71889;BME280;59762;49.998;14.858;2022-09-17T06:16:20;96515.00;;;7.72;100.00
71889;BME280;59762;49.998;14.858;2022-09-17T06:18:45;96509.09;;;7.70;100.00
71889;BME280;59762;49.998;14.858;2022-09-17T06:21:11;96510.56;;;7.66;100.00
71889;BME280;59762;49.998;14.858;2022-09-17T06:23:37;96511.44;;;7.59;100.00
71889;BME280;59762;49.998;14.858;2022-09-17T06:26:04;96517.56;;;7.60;100.00
71889;BME280;59762;49.998;14.858;2022-09-17T06:28:31;96524.94;;;7.58;100.00
71889;BME280;59762;49.998;14.858;2022-09-17T06:31:00;96522.47;;;7.56;100.00
71889;BME280;59762;49.998;14.858;2022-09-17T06:33:28;96515.50;;;7.62;100.00
71889;BME280;59762;49.998;14.858;2022-09-17T06:36:06;96516.91;;;7.65;100.00
71889;BME280;59762;49.998;14.858;2022-09-17T06:38:33;96521.34;;;7.71;100.00
71889;BME280;59762;49.998;14.858;2022-09-17T06:40:59;96525.63;;;7.72;100.00
71889;BME280;59762;49.998;14.858;2022-09-17T06:43:25;96518.25;;;7.74;100.00
71889;BME280;59762;49.998;14.858;2022-09-17T06:45:55;96523.13;;;7.77;100.00
71889;BME280;59762;49.998;14.858;2022-09-17T06:48:22;96511.69;;;7.76;100.00
71889;BME280;59762;49.998;14.858;2022-09-17T06:50:48;96509.72;;;7.90;100.00
71889;BME280;59762;49.998;14.858;2022-09-17T06:53:14;96509.16;;;7.88;100.00
71889;BME280;59762;49.998;14.858;2022-09-17T06:55:40;96527.03;;;7.93;100.00
71889;BME280;59762;49.998;14.858;2022-09-17T06:58:06;96523.88;;;8.02;100.00
71889;BME280;59762;49.998;14.858;2022-09-17T07:00:32;96520.75;;;8.05;100.00
71889;BME280;59762;49.998;14.858;2022-09-17T07:02:58;96541.63;;;8.02;100.00
71889;BME280;59762;49.998;14.858;2022-09-17T07:05:27;96544.94;;;7.97;100.00
71889;BME280;59762;49.998;14.858;2022-09-17T07:07:53;96536.38;;;7.95;100.00
71889;BME280;59762;49.998;14.858;2022-09-17T07:10:19;96543.31;;;7.96;100.00
71889;BME280;59762;49.998;14.858;2022-09-17T07:12:46;96550.31;;;7.91;100.00
71889;BME280;59762;49.998;14.858;2022-09-17T07:15:11;96540.72;;;7.90;100.00
71889;BME280;59762;49.998;14.858;2022-09-17T07:17:38;96539.41;;;7.99;100.00
71889;BME280;59762;49.998;14.858;2022-09-17T07:20:08;96540.38;;;8.04;100.00
71889;BME280;59762;49.998;14.858;2022-09-17T07:22:34;96541.84;;;8.00;100.00
71889;BME280;59762;49.998;14.858;2022-09-17T07:25:00;96542.88;;;7.99;100.00
71889;BME280;59762;49.998;14.858;2022-09-17T07:27:27;96542.06;;;7.99;100.00
71889;BME280;59762;49.998;14.858;2022-09-17T07:29:53;96545.97;;;7.96;100.00
71889;BME280;59762;49.998;14.858;2022-09-17T07:32:19;96555.09;;;8.00;100.00
71889;BME280;59762;49.998;14.858;2022-09-17T07:34:45;96546.56;;;7.98;100.00
71889;BME280;59762;49.998;14.858;2022-09-17T07:37:10;96549.50;;;7.90;100.00
71889;BME280;59762;49.998;14.858;2022-09-17T07:39:36;96549.00;;;8.00;100.00
71889;BME280;59762;49.998;14.858;2022-09-17T07:42:03;96556.75;;;8.01;100.00
71889;BME280;59762;49.998;14.858;2022-09-17T07:44:29;96552.59;;;8.05;100.00
71889;BME280;59762;49.998;14.858;2022-09-17T07:46:55;96551.59;;;8.06;100.00
71889;BME280;59762;49.998;14.858;2022-09-17T07:49:21;96543.34;;;8.15;100.00
71889;BME280;59762;49.998;14.858;2022-09-17T07:51:46;96544.19;;;8.27;100.00
71889;BME280;59762;49.998;14.858;2022-09-17T07:54:12;96533.69;;;8.39;100.00
71889;BME280;59762;49.998;14.858;2022-09-17T07:56:37;96527.56;;;8.56;100.00
71889;BME280;59762;49.998;14.858;2022-09-17T07:59:03;96522.19;;;8.75;100.00
71889;BME280;59762;49.998;14.858;2022-09-17T08:01:31;96512.25;;;8.70;100.00
71889;BME280;59762;49.998;14.858;2022-09-17T08:03:58;96512.63;;;8.74;100.00
71889;BME280;59762;49.998;14.858;2022-09-17T08:06:25;96517.31;;;9.02;100.00
71889;BME280;59762;49.998;14.858;2022-09-17T08:08:53;96505.25;;;9.18;100.00
71889;BME280;59762;49.998;14.858;2022-09-17T08:11:21;96500.53;;;9.31;100.00
71889;BME280;59762;49.998;14.858;2022-09-17T08:13:48;96492.91;;;9.35;100.00
71889;BME280;59762;49.998;14.858;2022-09-17T08:16:15;96484.34;;;9.33;100.00
71889;BME280;59762;49.998;14.858;2022-09-17T08:18:42;96498.66;;;9.32;100.00
71889;BME280;59762;49.998;14.858;2022-09-17T08:21:13;96485.28;;;9.39;100.00
71889;BME280;59762;49.998;14.858;2022-09-17T08:23:40;96485.41;;;9.44;100.00
71889;BME280;59762;49.998;14.858;2022-09-17T08:26:08;96482.25;;;9.47;100.00
71889;BME280;59762;49.998;14.858;2022-09-17T08:28:36;96488.53;;;9.52;100.00
71889;BME280;59762;49.998;14.858;2022-09-17T08:31:07;96488.63;;;9.69;100.00
71889;BME280;59762;49.998;14.858;2022-09-17T08:33:35;96485.50;;;9.84;100.00
71889;BME280;59762;49.998;14.858;2022-09-17T08:36:02;96487.47;;;9.89;100.00
71889;BME280;59762;49.998;14.858;2022-09-17T08:38:30;96497.50;;;10.10;100.00
71889;BME280;59762;49.998;14.858;2022-09-17T08:43:32;96501.91;;;10.28;100.00
71889;BME280;59762;49.998;14.858;2022-09-17T08:46:00;96505.09;;;10.42;100.00
71889;BME280;59762;49.998;14.858;2022-09-17T08:48:33;96506.88;;;10.65;100.00
71889;BME280;59762;49.998;14.858;2022-09-17T08:51:14;96509.53;;;10.65;100.00
71889;BME280;59762;49.998;14.858;2022-09-17T09:05:09;96528.06;;;10.88;100.00
71889;BME280;59762;49.998;14.858;2022-09-17T09:07:43;96534.34;;;10.82;100.00
71889;BME280;59762;49.998;14.858;2022-09-17T09:10:25;96539.78;;;10.87;100.00
71889;BME280;59762;49.998;14.858;2022-09-17T09:12:54;96539.97;;;10.69;100.00
71889;BME280;59762;49.998;14.858;2022-09-17T09:15:22;96551.19;;;10.71;100.00
71889;BME280;59762;49.998;14.858;2022-09-17T09:17:51;96562.09;;;10.57;100.00
71889;BME280;59762;49.998;14.858;2022-09-17T09:20:27;96580.28;;;10.60;100.00
71889;BME280;59762;49.998;14.858;2022-09-17T09:22:59;96580.09;;;10.50;100.00
71889;BME280;59762;49.998;14.858;2022-09-17T09:25:31;96590.31;;;10.70;100.00
71889;BME280;59762;49.998;14.858;2022-09-17T09:28:09;96569.47;;;10.79;100.00
71889;BME280;59762;49.998;14.858;2022-09-17T09:33:16;96559.94;;;11.57;100.00
71889;BME280;59762;49.998;14.858;2022-09-17T09:35:43;96552.56;;;11.98;100.00
71889;BME280;59762;49.998;14.858;2022-09-17T09:38:39;96555.47;;;11.79;100.00
71889;BME280;59762;49.998;14.858;2022-09-17T09:43:55;96532.88;;;11.20;100.00
71889;BME280;59762;49.998;14.858;2022-09-17T09:51:57;96533.81;;;10.97;100.00
71889;BME280;59762;49.998;14.858;2022-09-17T09:57:16;96528.91;;;11.05;100.00
71889;BME280;59762;49.998;14.858;2022-09-17T09:59:43;96538.94;;;11.15;100.00
71889;BME280;59762;49.998;14.858;2022-09-17T10:02:09;96543.66;;;11.25;100.00
71889;BME280;59762;49.998;14.858;2022-09-17T10:04:36;96535.97;;;11.28;100.00
71889;BME280;59762;49.998;14.858;2022-09-17T10:07:04;96531.31;;;11.69;100.00
71889;BME280;59762;49.998;14.858;2022-09-17T10:09:33;96525.56;;;11.94;100.00
71889;BME280;59762;49.998;14.858;2022-09-17T10:12:14;96522.78;;;12.06;100.00
71889;BME280;59762;49.998;14.858;2022-09-17T10:14:41;96523.66;;;12.11;100.00
71889;BME280;59762;49.998;14.858;2022-09-17T10:19:44;96530.28;;;11.87;100.00
71889;BME280;59762;49.998;14.858;2022-09-17T10:22:26;96535.94;;;12.12;100.00
71889;BME280;59762;49.998;14.858;2022-09-17T10:24:54;96531.75;;;12.38;100.00
71889;BME280;59762;49.998;14.858;2022-09-17T10:27:23;96529.78;;;11.90;100.00
71889;BME280;59762;49.998;14.858;2022-09-17T10:32:32;96542.38;;;11.78;100.00
71889;BME280;59762;49.998;14.858;2022-09-17T10:37:44;96527.19;;;11.61;100.00
71889;BME280;59762;49.998;14.858;2022-09-17T10:42:45;96544.66;;;11.86;100.00
71889;BME280;59762;49.998;14.858;2022-09-17T10:45:30;96533.56;;;11.94;100.00
71889;BME280;59762;49.998;14.858;2022-09-17T10:47:58;96540.44;;;11.56;100.00
71889;BME280;59762;49.998;14.858;2022-09-17T10:50:31;96545.44;;;11.36;100.00
71889;BME280;59762;49.998;14.858;2022-09-17T10:53:05;96538.25;;;11.53;100.00
71889;BME280;59762;49.998;14.858;2022-09-17T10:55:44;96555.81;;;11.66;100.00
71889;BME280;59762;49.998;14.858;2022-09-17T11:03:46;96550.00;;;11.07;100.00
71889;BME280;59762;49.998;14.858;2022-09-17T11:06:36;96541.09;;;11.01;100.00
71889;BME280;59762;49.998;14.858;2022-09-17T11:17:41;96534.06;;;11.41;100.00
71889;BME280;59762;49.998;14.858;2022-09-17T11:23:41;96530.06;;;11.77;100.00
71889;BME280;59762;49.998;14.858;2022-09-17T11:26:29;96526.66;;;12.15;100.00
71889;BME280;59762;49.998;14.858;2022-09-17T11:34:59;96515.56;;;12.23;100.00
71889;BME280;59762;49.998;14.858;2022-09-17T11:37:34;96516.16;;;12.52;100.00
71889;BME280;59762;49.998;14.858;2022-09-17T11:40:03;96533.31;;;12.56;100.00
71889;BME280;59762;49.998;14.858;2022-09-17T11:42:35;96521.66;;;12.41;100.00
71889;BME280;59762;49.998;14.858;2022-09-17T11:45:09;96525.56;;;12.33;100.00
71889;BME280;59762;49.998;14.858;2022-09-17T11:47:46;96523.56;;;12.23;100.00
71889;BME280;59762;49.998;14.858;2022-09-17T11:50:24;96526.72;;;12.20;100.00
71889;BME280;59762;49.998;14.858;2022-09-17T11:55:37;96511.06;;;12.07;100.00
71889;BME280;59762;49.998;14.858;2022-09-17T11:58:22;96503.19;;;12.17;100.00
71889;BME280;59762;49.998;14.858;2022-09-17T12:00:58;96500.22;;;12.14;100.00
71889;BME280;59762;49.998;14.858;2022-09-17T12:03:32;96498.78;;;12.28;100.00
71889;BME280;59762;49.998;14.858;2022-09-17T12:06:01;96495.81;;;12.46;100.00
71889;BME280;59762;49.998;14.858;2022-09-17T12:11:35;96491.81;;;12.71;100.00
71889;BME280;59762;49.998;14.858;2022-09-17T12:14:30;96482.44;;;12.68;100.00
71889;BME280;59762;49.998;14.858;2022-09-17T12:17:02;96481.66;;;12.24;100.00
71889;BME280;59762;49.998;14.858;2022-09-17T12:19:42;96500.75;;;12.16;100.00
71889;BME280;59762;49.998;14.858;2022-09-17T12:24:42;96474.63;;;11.96;100.00
71889;BME280;59762;49.998;14.858;2022-09-17T12:35:34;96479.34;;;12.10;100.00
71889;BME280;59762;49.998;14.858;2022-09-17T12:46:31;96464.47;;;12.63;100.00
71889;BME280;59762;49.998;14.858;2022-09-17T12:51:59;96464.69;;;11.91;100.00
71889;BME280;59762;49.998;14.858;2022-09-17T13:00:22;96468.28;;;11.29;100.00
71889;BME280;59762;49.998;14.858;2022-09-17T13:03:22;96465.13;;;11.49;100.00
71889;BME280;59762;49.998;14.858;2022-09-17T13:14:20;96463.75;;;12.02;100.00
71889;BME280;59762;49.998;14.858;2022-09-17T13:16:53;96450.09;;;11.99;100.00
71889;BME280;59762;49.998;14.858;2022-09-17T13:19:38;96442.53;;;12.12;100.00
71889;BME280;59762;49.998;14.858;2022-09-17T13:22:15;96433.09;;;12.27;100.00
71889;BME280;59762;49.998;14.858;2022-09-17T13:24:42;96428.94;;;12.14;100.00
71889;BME280;59762;49.998;14.858;2022-09-17T13:27:21;96427.34;;;12.13;100.00
71889;BME280;59762;49.998;14.858;2022-09-17T13:40:28;96442.66;;;11.28;100.00
71889;BME280;59762;49.998;14.858;2022-09-17T13:45:27;96451.31;;;10.85;100.00
71889;BME280;59762;49.998;14.858;2022-09-17T13:47:59;96457.22;;;10.58;100.00
71889;BME280;59762;49.998;14.858;2022-09-17T13:50:42;96449.19;;;10.42;100.00
71889;BME280;59762;49.998;14.858;2022-09-17T13:55:50;96453.97;;;10.28;100.00
71889;BME280;59762;49.998;14.858;2022-09-17T14:19:27;96452.56;;;9.38;100.00
71889;BME280;59762;49.998;14.858;2022-09-17T14:30:22;96454.44;;;9.61;100.00
71889;BME280;59762;49.998;14.858;2022-09-17T14:35:22;96466.53;;;9.80;100.00
71889;BME280;59762;49.998;14.858;2022-09-17T14:37:53;96471.41;;;9.83;100.00
71889;BME280;59762;49.998;14.858;2022-09-17T14:40:21;96469.31;;;9.97;100.00
71889;BME280;59762;49.998;14.858;2022-09-17T14:42:51;96473.56;;;10.10;100.00
71889;BME280;59762;49.998;14.858;2022-09-17T14:45:30;96467.50;;;10.26;100.00
71889;BME280;59762;49.998;14.858;2022-09-17T14:48:23;96466.66;;;10.49;100.00
71889;BME280;59762;49.998;14.858;2022-09-17T14:50:50;96467.69;;;10.77;100.00
71889;BME280;59762;49.998;14.858;2022-09-17T14:53:18;96466.88;;;10.93;100.00
71889;BME280;59762;49.998;14.858;2022-09-17T14:55:48;96461.25;;;10.90;100.00
71889;BME280;59762;49.998;14.858;2022-09-17T14:58:51;96458.50;;;11.18;100.00
71889;BME280;59762;49.998;14.858;2022-09-17T15:01:25;96459.16;;;11.42;100.00
71889;BME280;59762;49.998;14.858;2022-09-17T15:06:39;96465.06;;;11.27;100.00
71889;BME280;59762;49.998;14.858;2022-09-17T15:09:05;96464.72;;;11.24;100.00
71889;BME280;59762;49.998;14.858;2022-09-17T15:11:40;96468.94;;;11.03;100.00
71889;BME280;59762;49.998;14.858;2022-09-17T15:14:14;96472.19;;;10.93;100.00
71889;BME280;59762;49.998;14.858;2022-09-17T15:16:47;96462.44;;;10.82;100.00
71889;BME280;59762;49.998;14.858;2022-09-17T15:19:26;96462.69;;;10.97;100.00
71889;BME280;59762;49.998;14.858;2022-09-17T15:21:56;96469.25;;;11.23;100.00
71889;BME280;59762;49.998;14.858;2022-09-17T15:27:04;96465.13;;;11.49;100.00
71889;BME280;59762;49.998;14.858;2022-09-17T15:29:33;96456.88;;;11.51;100.00
71889;BME280;59762;49.998;14.858;2022-09-17T15:32:03;96465.38;;;11.48;100.00
71889;BME280;59762;49.998;14.858;2022-09-17T15:34:29;96469.00;;;11.58;100.00
71889;BME280;59762;49.998;14.858;2022-09-17T15:37:24;96459.31;;;11.52;100.00
71889;BME280;59762;49.998;14.858;2022-09-17T15:39:52;96458.09;;;11.60;100.00
71889;BME280;59762;49.998;14.858;2022-09-17T15:42:27;96455.50;;;11.65;100.00
71889;BME280;59762;49.998;14.858;2022-09-17T15:45:20;96454.19;;;11.68;100.00
71889;BME280;59762;49.998;14.858;2022-09-17T15:47:55;96462.19;;;11.68;100.00
71889;BME280;59762;49.998;14.858;2022-09-17T15:50:27;96459.63;;;11.56;100.00
71889;BME280;59762;49.998;14.858;2022-09-17T15:58:26;96468.84;;;11.15;100.00
71889;BME280;59762;49.998;14.858;2022-09-17T16:08:47;96500.25;;;10.27;100.00
71889;BME280;59762;49.998;14.858;2022-09-17T16:11:14;96504.69;;;10.09;100.00
71889;BME280;59762;49.998;14.858;2022-09-17T16:13:39;96508.16;;;9.98;100.00
71889;BME280;59762;49.998;14.858;2022-09-17T16:16:05;96512.47;;;9.88;100.00
71889;BME280;59762;49.998;14.858;2022-09-17T16:18:31;96517.19;;;9.74;100.00
71889;BME280;59762;49.998;14.858;2022-09-17T16:20:57;96517.06;;;9.69;100.00
71889;BME280;59762;49.998;14.858;2022-09-17T16:23:22;96516.50;;;9.67;100.00
71889;BME280;59762;49.998;14.858;2022-09-17T16:25:48;96519.94;;;9.55;100.00
71889;BME280;59762;49.998;14.858;2022-09-17T16:28:17;96520.44;;;9.52;100.00
71889;BME280;59762;49.998;14.858;2022-09-17T16:30:47;96513.94;;;9.37;100.00